This is the latest recevied weather packets stored in our database for station/object KD7AWQ. If no packets are shown the sender has not sent any weather packets the latest 10 day(s).
| Time | Temp. | Humidity | Pressure | Rain* | Wind** | Luminosity | Snow |
|---|---|---|---|---|---|---|---|
| 1777969297 | 12.22° C | 81% | 1183.6 hPa | 0 mm | - | 0 W/m² | - |
| 1777968993 | 12.78° C | 79% | 1183.6 hPa | 0 mm | - | 0 W/m² | - |
| 1777968691 | 12.78° C | 78% | 1183.5 hPa | 0 mm | - | 0 W/m² | - |
| 1777968387 | 12.78° C | 76% | 1183.5 hPa | 0 mm | - | 0 W/m² | - |
| 1777968083 | 12.78° C | 73% | 1183.3 hPa | 0 mm | - | 0 W/m² | - |
| 1777967780 | 13.33° C | 73% | 1183.3 hPa | 0 mm | - | 0 W/m² | - |
| 1777967476 | 13.33° C | 71% | 1183.6 hPa | 0 mm | - | 0 W/m² | - |
| 1777967173 | 13.33° C | 70% | 1183 hPa | 0 mm | - | 0 W/m² | - |
| 1777966870 | 13.33° C | 70% | 1183.2 hPa | 0 mm | - | 0 W/m² | - |
| 1777966568 | 13.33° C | 70% | 1183.5 hPa | 0 mm | - | 0 W/m² | - |
| 1777966266 | 13.33° C | 70% | 1183.3 hPa | 0 mm | - | 0 W/m² | - |
| 1777965961 | 13.33° C | 69% | 1183.5 hPa | 0 mm | - | 0 W/m² | - |
| 1777965658 | 13.33° C | 69% | 1183.5 hPa | 0 mm | - | 0 W/m² | - |
| 1777965354 | 13.33° C | 69% | 1183.3 hPa | 0 mm | - | 0 W/m² | - |
| 1777965052 | 13.89° C | 68% | 1183.6 hPa | 0 mm | - | 0 W/m² | - |
| 1777964749 | 13.89° C | 68% | 1183.6 hPa | 0 mm | - | 0 W/m² | - |
| 1777964445 | 14.44° C | 65% | 1183.7 hPa | 0 mm | - | 0 W/m² | - |
| 1777964141 | 14.44° C | 62% | 1183.5 hPa | 0 mm | - | 0 W/m² | - |
| 1777963838 | 15° C | 60% | 1183.5 hPa | 0 mm | - | 0 W/m² | - |
| 1777963534 | 15° C | 61% | 1183.6 hPa | 0 mm | - | 0 W/m² | - |
| 1777963233 | 14.44° C | 63% | 1183.6 hPa | 0 mm | - | 0 W/m² | - |
| 1777962930 | 14.44° C | 62% | 1183.5 hPa | 0 mm | - | 0 W/m² | - |
| 1777962626 | 14.44° C | 65% | 1183.5 hPa | 0 mm | - | 0 W/m² | - |
| 1777962323 | 13.89° C | 67% | 1183.2 hPa | 0 mm | - | 0 W/m² | - |
| 1777962020 | 13.89° C | 68% | 1183.3 hPa | 0 mm | - | 0 W/m² | - |
* Rain latest hour (hover to see other rain measurements)
** Current wind speed in m/s (hover to see current wind gust speed)